createdAt,value
2023-10-03T00:01:22.668Z,16.02
2023-10-03T00:03:54.432Z,15.98
2023-10-03T00:06:23.912Z,16.00
2023-10-03T00:08:55.469Z,15.97
2023-10-03T00:11:24.850Z,15.96
2023-10-03T00:13:55.080Z,15.92
2023-10-03T00:16:24.237Z,15.89
2023-10-03T00:18:53.382Z,15.93
2023-10-03T00:21:22.624Z,15.97
2023-10-03T00:23:53.279Z,16.02
2023-10-03T00:26:23.460Z,16.07
2023-10-03T00:28:53.003Z,16.14
2023-10-03T00:31:23.043Z,16.18
2023-10-03T00:33:52.439Z,16.24
2023-10-03T00:36:26.089Z,16.26
2023-10-03T00:38:56.701Z,16.29
2023-10-03T00:41:26.404Z,16.34
2023-10-03T00:43:59.301Z,16.31
2023-10-03T00:46:31.061Z,16.38
2023-10-03T00:49:06.261Z,16.35
2023-10-03T00:51:36.492Z,16.37
2023-10-03T00:54:07.762Z,16.35
2023-10-03T00:56:37.517Z,16.37
2023-10-03T00:59:09.573Z,16.30
2023-10-03T01:01:39.810Z,16.22
2023-10-03T01:04:17.330Z,16.17
2023-10-03T01:06:47.338Z,16.10
2023-10-03T01:09:25.097Z,15.99
2023-10-03T01:11:54.700Z,15.95
2023-10-03T01:14:24.393Z,15.87
2023-10-03T01:16:54.018Z,15.79
2023-10-03T01:19:26.869Z,15.79
2023-10-03T01:21:56.028Z,15.82
2023-10-03T01:24:27.327Z,15.88
2023-10-03T01:26:58.253Z,15.87
2023-10-03T01:29:27.514Z,15.88
2023-10-03T01:31:56.771Z,15.92
2023-10-03T01:34:26.056Z,15.92
2023-10-03T01:36:55.256Z,15.93
2023-10-03T01:39:25.997Z,16.06
2023-10-03T01:41:55.273Z,16.08
2023-10-03T01:44:24.668Z,16.08
2023-10-03T01:46:54.366Z,16.03
2023-10-03T01:49:26.348Z,16.07
2023-10-03T01:51:55.699Z,16.07
2023-10-03T01:54:26.312Z,16.11
2023-10-03T01:56:57.723Z,16.14
2023-10-03T01:59:27.047Z,16.13
2023-10-03T02:01:56.380Z,16.11
2023-10-03T02:04:30.094Z,16.09
2023-10-03T02:06:59.709Z,16.14
2023-10-03T02:09:30.273Z,16.15
2023-10-03T02:12:00.636Z,16.16
2023-10-03T02:14:31.690Z,16.17
2023-10-03T02:17:00.978Z,16.20
2023-10-03T02:19:30.309Z,16.23
2023-10-03T02:22:00.574Z,16.23
2023-10-03T02:24:33.486Z,16.24
2023-10-03T02:27:07.313Z,16.25
2023-10-03T02:29:36.604Z,16.32
2023-10-03T02:32:09.082Z,16.28
2023-10-03T02:34:40.876Z,16.23
2023-10-03T02:37:10.165Z,16.27
2023-10-03T02:39:42.087Z,16.31
2023-10-03T02:42:11.394Z,16.31
2023-10-03T02:44:41.409Z,16.32
2023-10-03T02:47:11.813Z,16.28
2023-10-03T02:49:41.466Z,16.32
2023-10-03T02:52:11.288Z,16.39
2023-10-03T02:54:42.080Z,16.31
2023-10-03T02:57:11.221Z,16.31
2023-10-03T02:59:41.170Z,16.36
2023-10-03T03:02:12.470Z,16.33
2023-10-03T03:04:42.299Z,16.32
2023-10-03T03:07:12.308Z,16.31
2023-10-03T03:09:42.841Z,16.32
2023-10-03T03:12:12.148Z,16.28
2023-10-03T03:14:41.840Z,16.31
2023-10-03T03:17:15.504Z,16.33
2023-10-03T03:19:46.100Z,16.30
2023-10-03T03:22:17.155Z,16.28
2023-10-03T03:24:52.821Z,16.26
2023-10-03T03:27:27.368Z,16.19
2023-10-03T03:30:10.583Z,16.21
2023-10-03T03:32:39.881Z,16.24
2023-10-03T03:35:10.580Z,16.22
2023-10-03T03:37:41.345Z,16.23
2023-10-03T03:40:26.177Z,16.28
2023-10-03T03:42:55.292Z,16.18
2023-10-03T03:45:24.388Z,16.20
2023-10-03T03:47:53.754Z,16.22
2023-10-03T03:50:23.269Z,16.17
2023-10-03T03:52:53.000Z,16.21
2023-10-03T03:55:24.297Z,16.25
2023-10-03T03:57:53.587Z,16.24
2023-10-03T04:00:24.090Z,16.24
2023-10-03T04:02:53.538Z,16.22
2023-10-03T04:05:23.262Z,16.22
2023-10-03T04:07:52.590Z,16.21
2023-10-03T04:10:23.645Z,16.24
2023-10-03T04:12:52.885Z,16.23
2023-10-03T04:15:22.151Z,16.16
2023-10-03T04:17:51.582Z,16.16
2023-10-03T04:20:26.816Z,16.15
2023-10-03T04:22:56.544Z,16.15
2023-10-03T04:25:27.939Z,16.14
2023-10-03T04:27:58.393Z,16.16
2023-10-03T04:30:28.122Z,16.17
2023-10-03T04:32:58.438Z,16.12
2023-10-03T04:35:29.884Z,16.22
2023-10-03T04:37:59.427Z,16.20
2023-10-03T04:40:32.709Z,16.16
2023-10-03T04:43:06.737Z,16.15
2023-10-03T04:45:36.777Z,16.20
2023-10-03T04:48:06.978Z,16.17
2023-10-03T04:50:40.396Z,16.27
2023-10-03T04:53:15.474Z,16.20
2023-10-03T04:55:49.255Z,16.18
2023-10-03T04:58:19.348Z,16.18
2023-10-03T05:00:48.904Z,16.12
2023-10-03T05:03:20.845Z,16.21
2023-10-03T05:05:51.272Z,16.27
2023-10-03T05:08:20.567Z,16.25
2023-10-03T05:10:55.395Z,16.24
2023-10-03T05:13:24.647Z,16.20
2023-10-03T05:15:55.297Z,16.19
2023-10-03T05:18:24.775Z,16.14
2023-10-03T05:20:59.097Z,16.19
2023-10-03T05:23:28.415Z,16.18
2023-10-03T05:25:59.072Z,16.30
2023-10-03T05:28:28.341Z,16.32
2023-10-03T05:31:00.307Z,16.28
2023-10-03T05:33:29.660Z,16.20
2023-10-03T05:35:58.939Z,16.21
2023-10-03T05:38:28.188Z,16.20
2023-10-03T05:40:58.768Z,16.13
2023-10-03T05:43:27.954Z,16.17
2023-10-03T05:45:57.575Z,16.18
2023-10-03T05:48:26.941Z,16.21
2023-10-03T05:50:56.810Z,16.21
2023-10-03T05:53:26.523Z,16.28
2023-10-03T05:55:55.806Z,16.31
2023-10-03T05:58:28.029Z,16.40
2023-10-03T06:00:57.247Z,16.44
2023-10-03T06:03:26.792Z,16.44
2023-10-03T06:05:56.290Z,16.51
2023-10-03T06:08:25.622Z,16.54
2023-10-03T06:10:57.801Z,16.68
2023-10-03T06:13:28.486Z,16.69
2023-10-03T06:16:00.191Z,16.71
2023-10-03T06:18:29.582Z,16.75
2023-10-03T06:20:59.623Z,16.77
2023-10-03T06:23:29.215Z,16.83
2023-10-03T06:25:58.575Z,16.90
2023-10-03T06:28:29.849Z,16.88
2023-10-03T06:30:59.072Z,16.99
2023-10-03T06:33:29.369Z,16.96
2023-10-03T06:35:58.714Z,16.96
2023-10-03T06:38:28.412Z,17.05
2023-10-03T06:40:57.923Z,17.09
2023-10-03T06:43:28.409Z,17.17
2023-10-03T06:45:57.601Z,17.27
2023-10-03T06:48:26.765Z,17.30
2023-10-03T06:50:57.344Z,17.29
2023-10-03T06:53:26.643Z,17.36
2023-10-03T06:55:58.270Z,17.41
2023-10-03T06:58:29.558Z,17.54
2023-10-03T07:00:58.981Z,17.55
2023-10-03T07:03:28.388Z,17.64
2023-10-03T07:05:58.139Z,17.69
2023-10-03T07:08:28.074Z,17.83
2023-10-03T07:10:58.249Z,17.92
2023-10-03T07:13:28.882Z,18.32
2023-10-03T07:15:59.910Z,18.54
2023-10-03T07:18:29.140Z,18.75
2023-10-03T07:20:58.649Z,18.89
2023-10-03T07:23:28.244Z,19.20
2023-10-03T07:25:57.464Z,19.29
2023-10-03T07:28:28.039Z,19.61
2023-10-03T07:30:57.406Z,19.95
2023-10-03T07:33:26.809Z,20.07
2023-10-03T07:35:58.007Z,20.14
2023-10-03T07:38:29.788Z,20.14
2023-10-03T07:40:59.023Z,20.18
2023-10-03T07:43:29.913Z,20.13
2023-10-03T07:45:59.943Z,20.22
2023-10-03T07:48:30.970Z,20.13
2023-10-03T07:51:00.477Z,20.10
2023-10-03T07:53:31.059Z,20.20
2023-10-03T07:56:00.994Z,20.19
2023-10-03T07:58:33.904Z,20.24
2023-10-03T08:01:05.746Z,20.32
2023-10-03T08:03:35.696Z,20.33
2023-10-03T08:06:05.183Z,20.34
2023-10-03T08:08:35.167Z,20.31
2023-10-03T08:11:07.981Z,20.45
2023-10-03T08:13:40.488Z,20.36
2023-10-03T08:16:09.913Z,20.44
2023-10-03T08:18:47.587Z,20.46
2023-10-03T08:21:17.082Z,20.51
2023-10-03T08:23:52.815Z,20.46
2023-10-03T08:26:22.836Z,20.57
2023-10-03T08:29:05.324Z,20.62
2023-10-03T08:31:39.928Z,20.74
2023-10-03T08:34:11.957Z,20.77
2023-10-03T08:36:41.174Z,21.02
2023-10-03T08:39:13.734Z,21.19
2023-10-03T08:41:49.159Z,21.22
2023-10-03T08:44:21.424Z,21.57
2023-10-03T08:46:56.583Z,21.54
2023-10-03T08:49:39.282Z,21.43
2023-10-03T08:52:10.931Z,21.33
2023-10-03T08:54:40.580Z,21.62
2023-10-03T08:57:12.129Z,21.62
2023-10-03T08:59:42.696Z,21.37
2023-10-03T09:02:15.760Z,21.29
2023-10-03T09:04:45.715Z,21.48
2023-10-03T09:07:15.026Z,21.24
2023-10-03T09:09:46.521Z,21.06
2023-10-03T09:12:16.200Z,21.22
2023-10-03T09:14:54.593Z,20.99
2023-10-03T09:17:25.158Z,20.96
2023-10-03T09:19:54.369Z,20.87
2023-10-03T09:22:33.079Z,20.99
2023-10-03T09:25:02.316Z,21.11
2023-10-03T09:27:32.404Z,20.89
2023-10-03T09:30:11.313Z,20.98
2023-10-03T09:32:41.441Z,21.30
2023-10-03T09:35:11.972Z,21.58
2023-10-03T09:37:44.799Z,21.81
2023-10-03T09:40:19.097Z,21.45
2023-10-03T09:42:50.273Z,21.55
2023-10-03T09:45:26.193Z,21.68
2023-10-03T09:48:07.355Z,21.57
2023-10-03T09:50:37.305Z,21.47
2023-10-03T09:53:07.641Z,21.37
2023-10-03T09:55:42.474Z,21.28
2023-10-03T09:58:12.601Z,21.60
2023-10-03T10:00:52.222Z,21.42
2023-10-03T10:03:28.552Z,20.93
2023-10-03T10:06:15.119Z,20.82
2023-10-03T10:08:50.709Z,20.60
2023-10-03T10:11:23.829Z,20.53
2023-10-03T10:14:11.273Z,20.47
2023-10-03T10:17:15.445Z,20.58
2023-10-03T10:20:14.240Z,20.66
2023-10-03T10:23:21.377Z,20.49
2023-10-03T10:25:58.054Z,20.47
2023-10-03T10:28:29.183Z,20.34
2023-10-03T10:31:32.896Z,20.35
2023-10-03T10:34:31.981Z,20.33
2023-10-03T10:37:04.403Z,20.31
2023-10-03T10:40:22.819Z,20.19
2023-10-03T10:43:00.843Z,19.25
2023-10-03T10:45:39.078Z,19.00
2023-10-03T10:48:09.623Z,18.83
2023-10-03T10:51:11.779Z,18.54
2023-10-03T10:53:48.360Z,18.24
2023-10-03T10:56:17.963Z,18.09
2023-10-03T10:58:52.772Z,17.63
2023-10-03T11:01:22.542Z,17.52
2023-10-03T11:03:52.140Z,17.33
2023-10-03T11:06:24.647Z,17.25
2023-10-03T11:08:55.667Z,17.35
2023-10-03T11:11:36.504Z,17.46
2023-10-03T11:14:05.725Z,17.46
2023-10-03T11:16:34.865Z,17.41
2023-10-03T11:19:05.466Z,17.47
2023-10-03T11:21:34.943Z,17.53
2023-10-03T11:24:15.746Z,17.66
2023-10-03T11:26:51.003Z,17.68
2023-10-03T11:29:39.765Z,17.70
2023-10-03T11:32:21.128Z,17.79
2023-10-03T11:34:50.581Z,17.61
2023-10-03T11:37:41.289Z,17.70
2023-10-03T11:40:15.584Z,17.65
2023-10-03T11:42:55.404Z,17.51
2023-10-03T11:45:30.424Z,17.29
2023-10-03T11:48:09.202Z,16.96
2023-10-03T11:50:40.934Z,17.08
2023-10-03T11:53:11.158Z,17.14
2023-10-03T11:55:43.430Z,17.10
2023-10-03T11:58:13.629Z,17.09
2023-10-03T12:00:45.793Z,17.12
2023-10-03T12:03:15.813Z,16.98
2023-10-03T12:05:46.970Z,16.92
2023-10-03T12:08:16.177Z,16.71
2023-10-03T12:10:46.896Z,16.67
2023-10-03T12:13:16.860Z,16.42
2023-10-03T12:15:47.342Z,16.30
2023-10-03T12:18:17.686Z,16.51
2023-10-03T12:20:47.146Z,16.36
2023-10-03T12:23:17.022Z,16.28
2023-10-03T12:25:47.628Z,16.18
2023-10-03T12:28:18.396Z,16.06
2023-10-03T12:30:47.517Z,16.26
2023-10-03T12:33:17.834Z,16.71
2023-10-03T12:35:47.699Z,16.49
2023-10-03T12:38:17.858Z,16.48
2023-10-03T12:40:49.731Z,16.30
2023-10-03T12:43:19.028Z,16.19
2023-10-03T12:45:48.989Z,16.19
2023-10-03T12:48:18.820Z,16.18
2023-10-03T12:50:49.138Z,16.24
2023-10-03T12:53:18.387Z,16.43
2023-10-03T12:55:50.474Z,16.33
2023-10-03T12:58:23.805Z,16.21
2023-10-03T13:00:54.013Z,16.26
2023-10-03T13:03:24.055Z,16.38
2023-10-03T13:05:57.295Z,16.52
2023-10-03T13:08:27.817Z,16.45
2023-10-03T13:11:02.717Z,16.58
2023-10-03T13:13:33.581Z,16.55
2023-10-03T13:16:04.012Z,16.64
2023-10-03T13:18:34.298Z,16.55
2023-10-03T13:21:05.195Z,16.65
2023-10-03T13:23:35.517Z,16.19
2023-10-03T13:26:06.488Z,15.82
2023-10-03T13:28:36.950Z,15.46
2023-10-03T13:31:07.436Z,15.36
2023-10-03T13:33:39.153Z,15.28
2023-10-03T13:36:10.085Z,15.32
2023-10-03T13:38:40.985Z,15.28
2023-10-03T13:41:13.020Z,15.20
2023-10-03T13:43:43.648Z,15.21
2023-10-03T13:46:14.518Z,15.24
2023-10-03T13:48:45.639Z,15.33
2023-10-03T13:51:16.342Z,15.52
2023-10-03T13:53:46.819Z,15.41
2023-10-03T13:56:19.806Z,15.45
2023-10-03T13:58:51.321Z,15.61
2023-10-03T14:01:23.032Z,15.61
2023-10-03T14:03:53.459Z,15.68
2023-10-03T14:06:27.830Z,15.56
2023-10-03T14:08:58.913Z,15.67
2023-10-03T14:11:31.235Z,15.58
2023-10-03T14:14:01.893Z,15.60
2023-10-03T14:16:31.217Z,15.62
2023-10-03T14:19:01.766Z,15.66
2023-10-03T14:21:45.821Z,15.64
2023-10-03T14:24:17.896Z,15.77
2023-10-03T14:26:49.977Z,15.75
2023-10-03T14:29:22.079Z,15.72
2023-10-03T14:31:51.505Z,15.54
2023-10-03T14:34:20.777Z,15.81
2023-10-03T14:36:49.959Z,15.69
2023-10-03T14:39:25.994Z,15.63
2023-10-03T14:41:59.323Z,15.56
2023-10-03T14:44:28.967Z,15.44
2023-10-03T14:46:58.694Z,15.53
2023-10-03T14:49:30.353Z,15.60
2023-10-03T14:51:59.812Z,15.73
2023-10-03T14:54:29.065Z,15.67
2023-10-03T14:56:59.936Z,15.64
2023-10-03T14:59:29.328Z,15.69
2023-10-03T15:01:58.489Z,15.73
2023-10-03T15:04:28.324Z,15.80
2023-10-03T15:06:58.836Z,16.13
2023-10-03T15:09:32.437Z,16.20
2023-10-03T15:12:03.263Z,16.24
2023-10-03T15:14:32.565Z,16.26
2023-10-03T15:17:02.301Z,16.22
2023-10-03T15:19:35.166Z,16.24
2023-10-03T15:22:05.220Z,16.15
2023-10-03T15:24:36.018Z,16.03
2023-10-03T15:27:07.097Z,16.04
2023-10-03T15:29:36.604Z,16.04
2023-10-03T15:32:06.727Z,16.01
2023-10-03T15:34:38.508Z,15.99
2023-10-03T15:37:10.205Z,15.94
2023-10-03T15:39:40.475Z,15.90
2023-10-03T15:42:12.084Z,15.87
2023-10-03T15:44:51.228Z,15.89
2023-10-03T15:47:24.439Z,15.93
2023-10-03T15:49:53.971Z,15.85
2023-10-03T15:52:23.381Z,15.86
2023-10-03T15:54:55.166Z,15.71
2023-10-03T15:57:27.054Z,15.72
2023-10-03T15:59:56.639Z,15.61
2023-10-03T16:02:26.477Z,15.45
2023-10-03T16:04:56.606Z,15.45
2023-10-03T16:07:26.065Z,15.36
2023-10-03T16:09:55.394Z,15.42
2023-10-03T16:12:26.120Z,15.44
2023-10-03T16:14:55.410Z,14.98
2023-10-03T16:17:24.790Z,14.33
2023-10-03T16:19:54.048Z,13.88
2023-10-03T16:22:23.355Z,13.77
2023-10-03T16:24:53.562Z,13.56
2023-10-03T16:27:22.824Z,13.55
2023-10-03T16:29:54.776Z,13.40
2023-10-03T16:32:24.420Z,13.23
2023-10-03T16:34:53.613Z,13.11
2023-10-03T16:37:22.751Z,12.97
2023-10-03T16:39:51.914Z,12.98
2023-10-03T16:42:21.231Z,12.96
2023-10-03T16:46:00.694Z,12.88
2023-10-03T16:48:33.145Z,12.78
2023-10-03T16:51:03.147Z,12.81
2023-10-03T16:53:34.336Z,12.90
2023-10-03T16:56:03.742Z,12.81
2023-10-03T16:58:33.337Z,12.91
2023-10-03T17:01:03.010Z,12.92
2023-10-03T17:03:34.678Z,12.86
2023-10-03T17:06:04.790Z,12.88
2023-10-03T17:08:34.593Z,12.94
2023-10-03T17:11:06.842Z,13.02
2023-10-03T17:13:39.021Z,13.16
2023-10-03T17:16:08.679Z,13.26
2023-10-03T17:18:39.261Z,13.30
2023-10-03T17:21:09.261Z,13.37
2023-10-03T17:23:39.147Z,13.34
2023-10-03T17:26:08.779Z,13.33
2023-10-03T17:28:38.218Z,13.42
2023-10-03T17:31:07.698Z,13.37
2023-10-03T17:33:38.482Z,13.29
2023-10-03T17:36:08.036Z,13.15
2023-10-03T17:38:37.250Z,13.02
2023-10-03T17:41:07.884Z,12.99
2023-10-03T17:43:37.224Z,12.99
2023-10-03T17:46:06.417Z,12.88
2023-10-03T17:48:35.918Z,12.80
2023-10-03T17:55:17.288Z,12.83
2023-10-03T17:57:46.606Z,12.80
2023-10-03T18:00:18.315Z,12.78
2023-10-03T18:02:49.629Z,12.74
2023-10-03T18:05:20.002Z,12.63
2023-10-03T18:07:50.174Z,12.70
2023-10-03T18:10:23.771Z,12.72
2023-10-03T18:13:00.312Z,12.61
2023-10-03T18:15:30.881Z,12.53
2023-10-03T18:18:01.487Z,12.50
2023-10-03T18:20:33.306Z,12.58
2023-10-03T18:23:04.754Z,12.55
2023-10-03T18:25:39.550Z,12.51
2023-10-03T18:28:10.208Z,12.48
2023-10-03T18:30:40.617Z,12.45
2023-10-03T18:33:14.882Z,12.48
2023-10-03T18:35:44.561Z,12.56
2023-10-03T18:38:16.026Z,12.48
2023-10-03T18:40:47.974Z,12.53
2023-10-03T18:43:17.184Z,12.52
2023-10-03T18:45:57.430Z,12.54
2023-10-03T18:48:27.700Z,12.58
2023-10-03T18:51:02.679Z,12.58
2023-10-03T18:53:34.209Z,12.62
2023-10-03T18:56:05.701Z,12.65
2023-10-03T18:58:34.880Z,12.63
2023-10-03T19:01:04.136Z,12.62
2023-10-03T19:03:35.820Z,12.66
2023-10-03T19:06:10.227Z,12.71
2023-10-03T19:08:39.679Z,12.72
2023-10-03T19:11:10.547Z,12.70
2023-10-03T19:13:39.644Z,12.76
2023-10-03T19:16:15.873Z,12.84
2023-10-03T19:18:45.128Z,12.82
2023-10-03T19:21:14.967Z,12.86
2023-10-03T19:23:46.377Z,12.88
2023-10-03T19:26:17.413Z,12.96
2023-10-03T19:28:46.927Z,12.86
2023-10-03T19:31:19.844Z,12.87
2023-10-03T19:33:49.730Z,12.91
2023-10-03T19:36:21.116Z,12.96
2023-10-03T19:38:50.618Z,12.93
2023-10-03T19:41:21.610Z,12.96
2023-10-03T19:43:51.739Z,12.93
2023-10-03T19:46:22.549Z,12.86
2023-10-03T19:48:51.854Z,12.86
2023-10-03T19:51:21.495Z,12.83
2023-10-03T19:53:54.062Z,12.69
2023-10-03T19:56:25.210Z,12.67
2023-10-03T19:58:56.038Z,12.74
2023-10-03T20:01:26.897Z,12.60
2023-10-03T20:03:56.272Z,12.61
2023-10-03T20:06:26.645Z,12.62
2023-10-03T20:08:55.841Z,12.56
2023-10-03T20:11:26.434Z,12.48
2023-10-03T20:13:55.570Z,12.45
2023-10-03T20:16:25.657Z,12.39
2023-10-03T20:18:55.010Z,12.37
2023-10-03T20:21:24.865Z,12.37
2023-10-03T20:23:54.058Z,12.46
2023-10-03T20:26:23.403Z,12.49
2023-10-03T20:28:54.066Z,12.45
2023-10-03T20:31:24.960Z,12.45
2023-10-03T20:33:54.265Z,12.49
2023-10-03T20:36:23.695Z,12.45
2023-10-03T20:38:53.431Z,12.41
2023-10-03T20:41:22.919Z,12.46
2023-10-03T20:43:53.530Z,12.43
2023-10-03T20:46:22.740Z,12.44
2023-10-03T20:48:52.437Z,12.38
2023-10-03T20:51:22.670Z,12.35
2023-10-03T20:53:53.063Z,12.39
2023-10-03T20:56:22.722Z,12.36
2023-10-03T20:58:55.692Z,12.40
2023-10-03T21:01:25.369Z,12.36
2023-10-03T21:03:54.675Z,12.38
2023-10-03T21:06:23.888Z,12.32
2023-10-03T21:08:53.243Z,12.27
2023-10-03T21:11:25.981Z,12.26
2023-10-03T21:13:56.533Z,12.32
2023-10-03T21:16:25.650Z,12.26
2023-10-03T21:18:55.193Z,12.28
2023-10-03T21:21:24.289Z,12.30
2023-10-03T21:23:53.800Z,12.29
2023-10-03T21:26:22.968Z,12.31
2023-10-03T21:28:52.119Z,12.27
2023-10-03T21:31:22.683Z,12.32
2023-10-03T21:33:51.909Z,12.25
2023-10-03T21:36:21.853Z,12.21
2023-10-03T21:38:51.064Z,12.24
2023-10-03T21:41:20.468Z,12.22
2023-10-03T21:43:49.577Z,12.16
2023-10-03T21:46:18.784Z,12.19
2023-10-03T21:48:51.118Z,12.11
2023-10-03T21:51:20.516Z,12.08
2023-10-03T21:53:50.816Z,12.14
2023-10-03T21:56:20.048Z,12.14
2023-10-03T21:58:49.127Z,12.15
2023-10-03T22:01:18.364Z,12.03
2023-10-03T22:03:48.859Z,12.07
2023-10-03T22:06:19.901Z,12.12
2023-10-03T22:08:49.321Z,12.11
2023-10-03T22:11:21.468Z,12.18
2023-10-03T22:13:50.984Z,12.17
2023-10-03T22:16:20.265Z,12.12
2023-10-03T22:18:50.747Z,12.13
2023-10-03T22:21:20.168Z,12.15
2023-10-03T22:23:49.297Z,12.11
2023-10-03T22:26:18.436Z,12.13
2023-10-03T22:28:47.642Z,12.19
2023-10-03T22:31:18.224Z,12.23
2023-10-03T22:33:49.238Z,12.22
2023-10-03T22:36:22.419Z,12.27
2023-10-03T22:38:52.866Z,12.28
2023-10-03T22:41:24.221Z,12.32
2023-10-03T22:43:53.552Z,12.34
2023-10-03T22:46:22.860Z,12.38
2023-10-03T22:48:52.156Z,12.37
2023-10-03T22:51:22.758Z,12.37
2023-10-03T22:53:52.529Z,12.48
2023-10-03T22:56:25.931Z,12.55
2023-10-03T22:58:55.457Z,12.57
2023-10-03T23:01:24.790Z,12.55
2023-10-03T23:03:54.099Z,12.57
2023-10-03T23:06:24.781Z,12.52
2023-10-03T23:08:55.736Z,12.52
2023-10-03T23:11:25.779Z,12.57
2023-10-03T23:13:55.150Z,12.52
2023-10-03T23:16:24.217Z,12.54
2023-10-03T23:18:53.546Z,12.58
2023-10-03T23:21:24.110Z,12.56
2023-10-03T23:23:53.562Z,12.58
2023-10-03T23:26:22.732Z,12.59
2023-10-03T23:28:51.900Z,12.54
2023-10-03T23:31:21.477Z,12.54
2023-10-03T23:33:51.424Z,12.60
2023-10-03T23:36:21.839Z,12.59
2023-10-03T23:38:52.445Z,12.56
2023-10-03T23:41:21.828Z,12.60
2023-10-03T23:43:51.055Z,12.54
2023-10-03T23:46:22.953Z,12.54
2023-10-03T23:48:52.874Z,12.46
2023-10-03T23:51:22.079Z,12.47
2023-10-03T23:53:52.688Z,12.44
2023-10-03T23:56:22.478Z,12.42
2023-10-03T23:58:53.298Z,12.39
